Stormwatcher's Retreat Logo




                  Temp     Hi    Low   Out    Dew  Wind  Wind   Wind    Hi    Hi   Wind   Heat    THW   THSW                Rain  Solar   Solar Hi Solar   UV    UV    Hi     Heat    Cool    In     In    In     In     In   In Air          Wind  Wind    ISS   Arc.
  Date    Time     Out   Temp   Temp   Hum    Pt. Speed   Dir    Run Speed   Dir  Chill  Index  Index  Index   Bar    Rain  Rate   Rad.  Energy    Rad.  Index  Dose   UV     D-D     D-D    Temp   Hum    Dew   Heat    EMC Density     ET   Samp   Tx   Recept  Int.
------------------------------------------------------------------------------------------------------------------------------------------------------------------------------------------------------------------------------------------------------------------------
 6/24/19 12:10a   54.2   54.3   54.2    82   48.8   5.0   ENE   0.83  12.0   ENE   53.1   54.0   52.9   49.7  30.153  0.00  0.00     0     0.00      0     0.0  0.00   0.0   0.075   0.000   73.1    52   54.4   72.8   9.59  .0740    0.000   210    5    100.0   10 
 6/24/19 12:20a   54.0   54.2   54.0    82   48.6   4.0   ENE   0.67   9.0   ENE   53.5   53.8   53.3   50.1  30.152  0.00  0.00     0     0.00      0     0.0  0.00   0.0   0.076   0.000   73.1    52   54.4   72.8   9.59  .0740    0.000   212    5    100.0   10 
 6/24/19 12:30a   53.9   54.0   53.9    82   48.5   4.0   ENE   0.67   9.0    NE   53.4   53.7   53.2   50.0  30.149  0.00  0.00     0     0.00      0     0.0  0.00   0.0   0.077   0.000   73.1    52   54.4   72.8   9.59  .0740    0.000   211    5    100.0   10 
 6/24/19 12:40a   53.9   54.0   53.9    82   48.5   4.0   ENE   0.67   9.0   ENE   53.4   53.7   53.2   50.0  30.150  0.00  0.00     0     0.00      0     0.0  0.00   0.0   0.077   0.000   73.0    52   54.3   72.7   9.59  .0740    0.000   212    5    100.0   10 
 6/24/19 12:50a   53.8   53.9   53.7    82   48.4   4.0   ENE   0.67  10.0   ENE   53.3   53.6   53.1   49.9  30.150  0.00  0.00     0     0.00      0     0.0  0.00   0.0   0.078   0.000   72.9    52   54.2   72.6   9.59  .0740    0.000   213    5    100.0   10 
 6/24/19  1:00a   53.6   53.8   53.6    82   48.2   4.0   ENE   0.67   8.0   ENE   53.0   53.4   52.8   49.6  30.148  0.00  0.00     0     0.00      0     0.0  0.00   0.0   0.079   0.000   72.9    52   54.2   72.6   9.59  .0740    0.001   214    5    100.0   10 
 6/24/19  1:10a   53.6   53.6   53.6    81   47.9   4.0   ENE   0.67  10.0    NE   53.0   53.3   52.7   49.5  30.147  0.00  0.00     0     0.00      0     0.0  0.00   0.0   0.079   0.000   72.9    52   54.2   72.6   9.59  .0740    0.000   212    5    100.0   10 
 6/24/19  1:20a   53.5   53.6   53.5    81   47.8   4.0   ENE   0.67   9.0    NE   52.9   53.2   52.6   49.4  30.148  0.00  0.00     0     0.00      0     0.0  0.00   0.0   0.080   0.000   72.8    52   54.1   72.4   9.59  .0740    0.000   213    5    100.0   10 
 6/24/19  1:30a   53.4   53.5   53.4    81   47.7   4.0     E   0.67  10.0    NE   52.8   53.1   52.5   49.3  30.145  0.00  0.00     0     0.00      0     0.0  0.00   0.0   0.081   0.000   72.8    52   54.1   72.4   9.59  .0740    0.000   212    5    100.0   10 
 6/24/19  1:40a   53.5   53.5   53.4    81   47.8   5.0     E   0.83  10.0   ENE   52.3   53.2   52.0   48.8  30.142  0.00  0.00     0     0.00      0     0.0  0.00   0.0   0.080   0.000   72.7    52   54.1   72.3   9.60  .0740    0.000   211    5    100.0   10 
 6/24/19  1:50a   53.6   53.6   53.5    81   47.9   5.0     E   0.83  11.0     E   52.4   53.3   52.1   48.9  30.139  0.00  0.00     0     0.00      0     0.0  0.00   0.0   0.079   0.000   72.7    52   54.1   72.3   9.60  .0740    0.000   211    5    100.0   10 
 6/24/19  2:00a   53.8   53.8   53.6    80   47.8   6.0     E   1.00  10.0     E   52.2   53.5   51.9   48.7  30.137  0.00  0.00     0     0.00      0     0.0  0.00   0.0   0.078   0.000   72.7    52   54.1   72.3   9.60  .0740    0.001   211    5    100.0   10 
 6/24/19  2:10a   53.7   53.8   53.7    80   47.7   5.0     E   0.83  10.0    NE   52.5   53.4   52.2   49.0  30.139  0.00  0.00     0     0.00      0     0.0  0.00   0.0   0.078   0.000   72.7    52   54.1   72.3   9.60  .0740    0.000   213    5    100.0   10 
 6/24/19  2:20a   53.6   53.7   53.6    79   47.2   4.0     E   0.67   8.0     E   53.0   53.3   52.7   49.5  30.139  0.00  0.00     0     0.00      0     0.0  0.00   0.0   0.079   0.000   72.6    52   54.0   72.1   9.60  .0741    0.000   211    5    100.0   10 
 6/24/19  2:30a   53.5   53.6   53.5    79   47.1   4.0   ENE   0.67   9.0     E   52.9   53.2   52.6   49.4  30.139  0.00  0.00     0     0.00      0     0.0  0.00   0.0   0.080   0.000   72.5    52   53.9   72.0   9.60  .0741    0.000   213    5    100.0   10 
 6/24/19  2:40a   53.5   53.5   53.5    78   46.8   5.0   ENE   0.83  11.0   ENE   52.3   53.1   51.9   48.6  30.136  0.00  0.00     0     0.00      0     0.0  0.00   0.0   0.080   0.000   72.5    52   53.9   72.0   9.60  .0741    0.000   212    5    100.0   10 
 6/24/19  2:50a   53.5   53.6   53.5    78   46.8   4.0     E   0.67  11.0    NE   52.9   53.1   52.5   49.2  30.135  0.00  0.00     0     0.00      0     0.0  0.00   0.0   0.080   0.000   72.4    52   53.8   71.8   9.60  .0741    0.000   214    5    100.0   10 
 6/24/19  3:00a   53.4   53.5   53.4    78   46.7   4.0   ENE   0.67  11.0   ENE   52.8   53.0   52.4   49.1  30.138  0.00  0.00     0     0.00      0     0.0  0.00   0.0   0.081   0.000   72.3    52   53.7   71.7   9.60  .0741    0.001   213    5    100.0   10 
 6/24/19  3:10a   53.3   53.4   53.3    77   46.3   3.0   ENE   0.50   9.0     E   53.3   52.9   52.9   49.6  30.136  0.00  0.00     0     0.00      0     0.0  0.00   0.0   0.081   0.000   72.3    52   53.7   71.7   9.60  .0741    0.000   212    5    100.0   10 
 6/24/19  3:20a   53.2   53.3   53.2    77   46.2   3.0   ENE   0.50   8.0     E   53.2   52.8   52.8   49.5  30.134  0.00  0.00     0     0.00      0     0.0  0.00   0.0   0.082   0.000   72.3    52   53.7   71.7   9.60  .0741    0.000   211    5    100.0   10 
 6/24/19  3:30a   53.1   53.2   53.1    77   46.1   2.0   ENE   0.33   5.0     E   53.1   52.7   52.7   49.4  30.130  0.00  0.00     0     0.00      0     0.0  0.00   0.0   0.083   0.000   72.2    52   53.6   71.5   9.61  .0741    0.000   211    5    100.0   10 
 6/24/19  3:40a   52.9   53.1   52.8    77   45.9   2.0     E   0.33   5.0   ENE   52.9   52.5   52.5   49.2  30.127  0.00  0.00     0     0.00      0     0.0  0.00   0.0   0.084   0.000   72.2    52   53.6   71.5   9.61  .0741    0.000   213    5    100.0   10 
 6/24/19  3:50a   52.7   52.8   52.7    77   45.7   2.0   ENE   0.33   6.0   ENE   52.7   52.3   52.3   49.0  30.126  0.00  0.00     0     0.00      0     0.0  0.00   0.0   0.085   0.000   72.2    52   53.6   71.5   9.61  .0741    0.000   210    5    100.0   10 
 6/24/19  4:00a   52.6   52.7   52.6    78   45.9   3.0     E   0.50   7.0     E   52.6   52.3   52.3   49.0  30.122  0.00  0.00     0     0.00      0     0.0  0.00   0.0   0.086   0.000   72.1    52   53.5   71.4   9.61  .0741    0.001   211    5    100.0   10 
 6/24/19  4:10a   52.5   52.6   52.5    78   45.8   3.0   ENE   0.50   7.0   ENE   52.5   52.2   52.2   48.9  30.118  0.00  0.00     0     0.00      0     0.0  0.00   0.0   0.087   0.000   72.1    52   53.5   71.4   9.61  .0741    0.000   209    5    100.0   10 
 6/24/19  4:20a   52.4   52.5   52.4    78   45.7   2.0     E   0.33   8.0     E   52.4   52.1   52.1   48.8  30.114  0.00  0.00     0     0.00      0     0.0  0.00   0.0   0.087   0.000   72.0    52   53.4   71.3   9.61  .0741    0.000   213    5    100.0   10 
 6/24/19  4:30a   52.3   52.4   52.3    78   45.6   3.0     E   0.50   7.0   ENE   52.2   52.0   51.9   48.6  30.111  0.00  0.00     0     0.00      0     0.0  0.00   0.0   0.088   0.000   72.0    52   53.4   71.3   9.61  .0741    0.000   212    5    100.0   10 
 6/24/19  4:40a   52.1   52.3   52.1    78   45.4   2.0     E   0.33   4.0     E   52.1   51.8   51.8   48.5  30.111  0.00  0.00     0     0.00      0     0.0  0.00   0.0   0.090   0.000   71.9    52   53.3   71.1   9.61  .0741    0.000   212    5    100.0   10 
 6/24/19  4:50a   51.3   52.1   51.3    78   44.7   2.0   ESE   0.33   3.0   ESE   51.3   51.1   51.1   47.8  30.109  0.00  0.00     0     0.00      0     0.0  0.00   0.0   0.095   0.000   71.8    52   53.2   71.0   9.61  .0741    0.000   213    5    100.0   10 
 6/24/19  5:00a   50.8   51.3   50.8    80   44.9   4.0   ESE   0.67   7.0     E   49.8   50.7   49.7   46.4  30.112  0.00  0.00     0     0.00      0     0.0  0.00   0.0   0.099   0.000   71.8    52   53.2   71.0   9.61  .0741    0.001   210    5    100.0   10 
 6/24/19  5:10a   50.6   50.8   50.6    80   44.7   4.0   ESE   0.67   9.0   ESE   49.6   50.5   49.5   46.2  30.109  0.00  0.00     0     0.00      0     0.0  0.00   0.0   0.100   0.000   71.7    52   53.1   70.8   9.62  .0741    0.000   211    5    100.0   10 
 6/24/19  5:20a   50.8   50.8   50.6    81   45.2   4.0     E   0.67   8.0   ESE   49.8   50.7   49.7   46.4  30.106  0.00  0.00     0     0.00      0     0.0  0.00   0.0   0.099   0.000   71.7    52   53.1   70.8   9.62  .0741    0.000   213    5    100.0   10 
 6/24/19  5:30a   50.9   50.9   50.8    81   45.3   3.0     E   0.50   8.0   ESE   50.7   50.8   50.6   47.3  30.104  0.00  0.00     1     0.01      5     0.0  0.00   0.0   0.098   0.000   71.6    52   53.0   70.7   9.62  .0741    0.000   212    5    100.0   10 
 6/24/19  5:40a   50.9   50.9   50.9    81   45.3   4.0     E   0.67   8.0     E   49.9   50.8   49.8   46.6  30.102  0.00  0.00     7     0.10      9     0.0  0.00   0.0   0.098   0.000   71.6    52   53.0   70.7   9.62  .0741    0.000   213    5    100.0   10 
 6/24/19  5:50a   50.9   50.9   50.8    81   45.3   4.0   ESE   0.67   7.0   ESE   49.9   50.8   49.8   46.8  30.103  0.00  0.00    12     0.17     14     0.0  0.00   0.0   0.098   0.000   71.6    52   53.0   70.7   9.62  .0741    0.000   214    5    100.0   10 
 6/24/19  6:00a   50.6   51.0   50.6    80   44.7   3.0    NE   0.50   6.0   ESE   50.4   50.5   50.3   47.3  30.107  0.00  0.00    16     0.23     18     0.0  0.00   0.0   0.100   0.000   71.5    52   52.9   70.5   9.62  .0742    0.001   211    5    100.0   10 
 6/24/19  6:10a   50.2   50.6   50.2    81   44.6   2.0    NE   0.33   3.0    NE   50.2   50.2   50.2   47.3  30.107  0.00  0.00    21     0.30     23     0.0  0.00   0.0   0.103   0.000   71.4    52   52.9   70.4   9.62  .0742    0.000   210    5    100.0   10 
 6/24/19  6:20a   50.0   50.2   50.0    82   44.7   0.0    NE   0.00   2.0    NE   50.0   50.0   50.0   47.2  30.106  0.00  0.00    26     0.37     28     0.0  0.00   0.0   0.104   0.000   71.4    52   52.9   70.4   9.62  .0742    0.000   212    5    100.0   10 
 6/24/19  6:30a   49.9   50.0   49.9    82   44.6   0.0    NE   0.00   1.0    NE   49.9   49.9   49.9   47.2  30.105  0.00  0.00    32     0.46     35     0.0  0.00   0.0   0.105   0.000   71.3    52   52.8   70.2   9.62  .0742    0.000   210    5    100.0   10 
 6/24/19  6:40a   49.8   49.9   49.8    82   44.5   0.0    NE   0.00   2.0    NE   49.8   49.8   49.8   47.3  30.106  0.00  0.00    39     0.56     40     0.0  0.00   0.0   0.106   0.000   71.3    52   52.8   70.2   9.62  .0742    0.000   210    5    100.0   10 
 6/24/19  6:50a   50.3   50.3   49.8    83   45.3   1.0    NE   0.17   3.0    NE   50.3   50.3   50.3   49.4  30.111  0.00  0.00   113     1.62    163     0.1  0.01   0.5   0.102   0.000   71.2    52   52.7   70.1   9.63  .0742    0.000   213    5    100.0   10 
 6/24/19  7:00a   50.8   50.8   50.3    83   45.8   0.0    NE   0.00   2.0    NE   50.8   50.8   50.8   53.4  30.111  0.00  0.00   133     1.91    174     0.0  0.00   0.0   0.099   0.000   71.2    52   52.7   70.1   9.63  .0742    0.001   212    5    100.0   10 
 6/24/19  7:10a   51.1   51.1   50.8    83   46.1   0.0    NE   0.00   2.0    NE   51.1   51.1   51.1   55.0  30.109  0.00  0.00   167     2.39    220     0.0  0.00   0.0   0.097   0.000   71.2    52   52.7   70.1   9.63  .0742    0.000   213    5    100.0   10 
 6/24/19  7:20a   51.2   51.2   51.0    83   46.2   3.0    NE   0.50   7.0   NNE   51.0   51.2   51.0   56.6  30.112  0.00  0.00   214     3.07    229     0.0  0.00   0.0   0.096   0.000   71.2    52   52.7   70.1   9.63  .0742    0.000   214    5    100.0   10 
 6/24/19  7:30a   52.3   52.3   51.2    84   47.6   1.0   ENE   0.17   4.0   ENE   52.3   52.2   52.2   57.3  30.110  0.00  0.00   180     2.58    239     0.0  0.00   0.0   0.088   0.000   71.2    52   52.7   70.1   9.63  .0742    0.000   212    5    100.0   10 
 6/24/19  7:40a   52.6   52.6   52.2    83   47.6   1.0   ENE   0.17   3.0   ENE   52.6   52.5   52.5   59.2  30.109  0.00  0.00   259     3.71    283     0.0  0.00   0.0   0.086   0.000   71.2    52   52.7   70.1   9.63  .0742    0.000   212    5    100.0   10 
 6/24/19  7:50a   53.2   53.3   52.6    82   47.8   0.0    NE   0.00   2.0    NE   53.2   53.0   53.0   60.8  30.108  0.00  0.00   302     4.33    316     0.0  0.00   0.0   0.082   0.000   71.2    52   52.7   70.1   9.63  .0742    0.000   214    5    100.0   10 
 6/24/19  8:00a   52.7   53.3   52.7    82   47.4   1.0    NE   0.17   3.0    NE   52.7   52.5   52.5   60.8  30.106  0.00  0.00   332     4.76    341     0.0  0.00   0.0   0.085   0.000   71.2    52   52.7   70.1   9.63  .0742    0.005   213    5    100.0   10 
 6/24/19  8:10a   52.2   52.7   52.2    82   46.9   1.0   NNW   0.17   3.0   NNW   52.2   52.1   52.1   60.6  30.107  0.00  0.00   358     5.13    369     0.0  0.00   0.0   0.089   0.000   71.2    52   52.7   70.1   9.63  .0742    0.000   213    5    100.0   10 
 6/24/19  8:20a   53.6   53.6   52.2    84   48.9   1.0     N   0.17   3.0     N   53.6   53.5   53.5   62.4  30.107  0.00  0.00   387     5.55    396     0.0  0.00   0.0   0.079   0.000   71.2    52   52.7   70.1   9.63  .0742    0.000   212    5    100.0   10 
 6/24/19  8:30a   54.2   54.2   53.7    81   48.5   3.0     N   0.50   5.0     N   54.2   53.9   53.9   63.1  30.107  0.00  0.00   419     6.01    434     0.0  0.00   0.0   0.075   0.000   71.2    52   52.7   70.1   9.63  .0742    0.000   210    5    100.0   10 
 6/24/19  8:40a   55.1   55.1   54.2    82   49.7   3.0    NE   0.50   5.0    NE   55.1   54.9   54.9   64.4  30.103  0.00  0.00   448     6.42    459     0.0  0.00   0.0   0.069   0.000   71.2    52   52.7   70.1   9.63  .0742    0.000   212    5    100.0   10 
 6/24/19  8:50a   55.1   55.3   55.0    81   49.4   4.0    NE   0.67   8.0   NNE   54.7   54.8   54.4   64.0  30.103  0.00  0.00   475     6.81    490     0.0  0.00   0.0   0.069   0.000   71.1    51   52.0   69.8   9.43  .0742    0.000   214    5    100.0   10 
 6/24/19  9:00a   55.8   55.8   55.1    80   49.7   4.0    NE   0.67   7.0   NNE   55.6   55.5   55.3   65.0  30.099  0.00  0.00   505     7.24    515     0.0  0.00   0.0   0.064   0.000   71.1    51   52.0   69.8   9.43  .0742    0.009   212    5    100.0   10 
 6/24/19  9:10a   55.9   56.0   55.8    79   49.5   5.0    NE   0.83   7.0   NNE   55.2   55.5   54.8   64.6  30.097  0.00  0.00   533     7.64    547     0.0  0.00   0.0   0.063   0.000   71.0    51   52.0   69.7   9.43  .0742    0.000   211    5    100.0   10 
 6/24/19  9:20a   56.3   56.4   55.9    78   49.5   4.0    NE   0.67   8.0    NE   56.2   55.9   55.8   65.7  30.097  0.00  0.00   560     8.03    573     0.0  0.00   0.0   0.060   0.000   71.0    51   52.0   69.7   9.43  .0742    0.000   213    5    100.0   10 
 6/24/19  9:30a   56.5   56.5   56.3    77   49.4   5.0    NE   0.83   8.0   ENE   55.9   56.1   55.5   65.4  30.096  0.00  0.00   587     8.41    599     0.0  0.00   0.0   0.059   0.000   71.0    51   52.0   69.7   9.43  .0742    0.000   211    5    100.0   10 
 6/24/19  9:40a   56.2   56.5   56.1    77   49.1   5.0    NE   0.83   9.0   NNE   55.5   55.7   55.0   64.9  30.095  0.00  0.00   613     8.79    622     0.0  0.00   0.0   0.061   0.000   71.0    51   52.0   69.7   9.43  .0742    0.000   213    5    100.0   10 
 6/24/19  9:50a   56.5   56.6   56.2    77   49.4   5.0    NE   0.83   9.0    NE   55.9   56.1   55.5   65.5  30.094  0.00  0.00   640     9.17    654     0.0  0.00   0.0   0.059   0.000   71.0    51   52.0   69.7   9.43  .0742    0.000   213    5    100.0   10 
 6/24/19 10:00a   56.6   56.6   56.4    76   49.1   5.0    NE   0.83   8.0   NNE   56.0   56.1   55.5   65.7  30.092  0.00  0.00   656     9.40    677     0.0  0.00   0.0   0.058   0.000   70.9    51   51.9   69.6   9.43  .0743    0.013   213    5    100.0   10 
 6/24/19 10:10a   57.0   57.0   56.6    76   49.5   5.0    NE   0.83   9.0    NE   56.4   56.5   55.9   65.8  30.096  0.00  0.00   688     9.86    696     0.0  0.00   0.0   0.056   0.000   70.9    51   51.9   69.6   9.43  .0743    0.000   213    5    100.0   10 
 6/24/19 10:20a   57.1   57.2   57.0    74   48.9   5.0   NNE   0.83   8.0   NNE   56.5   56.5   55.9   65.7  30.093  0.00  0.00   710    10.18    719     0.0  0.00   0.0   0.055   0.000   70.9    51   51.9   69.6   9.43  .0743    0.000   212    5    100.0   10 
 6/24/19 10:30a   57.7   57.7   56.9    74   49.5   5.0    NE   0.83   9.0    NE   57.2   57.1   56.6   66.5  30.088  0.00  0.00   736    10.55    749     0.0  0.00   0.0   0.051   0.000   70.9    51   51.9   69.6   9.43  .0742    0.000   213    5    100.0   10 
 6/24/19 10:40a   58.1   58.1   57.7    72   49.1   6.0    NE   1.00  10.0     N   57.3   57.4   56.6   66.5  30.086  0.00  0.00   759    10.88    779     0.0  0.00   0.0   0.048   0.000   70.9    52   52.4   69.6   9.63  .0742    0.000   212    5    100.0   10 
 6/24/19 10:50a   58.4   58.4   58.1    71   49.0   6.0    NE   1.00  10.0    NE   57.7   57.7   57.0   67.5  30.083  0.00  0.00   753    10.79    802     0.0  0.00   0.0   0.046   0.000   70.9    51   51.9   69.6   9.43  .0742    0.000   212    5    100.0   10 
 6/24/19 11:00a   58.8   58.8   58.4    70   49.0   7.0    NE   1.17  12.0    NE   57.8   58.1   57.1   66.7  30.081  0.00  0.00   799    11.45    817     0.0  0.00   0.0   0.043   0.000   70.9    51   51.9   69.6   9.43  .0742    0.016   211    5    100.0   10 
 6/24/19 11:10a   58.5   58.8   58.5    70   48.7   8.0    NE   1.33  12.0    NE   56.7   57.8   56.0   65.3  30.077  0.00  0.00   827    11.86    835     0.0  0.00   0.0   0.045   0.000   70.9    51   51.9   69.6   9.43  .0742    0.000   214    5    100.0   10 
 6/24/19 11:20a   58.9   58.9   58.5    70   49.1   7.0    NE   1.17  11.0   ENE   57.9   58.2   57.2   67.4  30.072  0.00  0.00   812    11.64    867     0.0  0.00   0.0   0.042   0.000   70.9    51   51.9   69.6   9.43  .0742    0.000   212    5    100.0   10 
 6/24/19 11:30a   59.5   59.5   58.9    70   49.7   7.0    NE   1.17  11.0   NNE   58.6   58.8   57.9   67.6  30.070  0.00  0.00   867    12.43    888     0.0  0.00   0.0   0.038   0.000   70.9    52   52.4   69.6   9.63  .0742    0.000   212    5    100.0   10 
 6/24/19 11:40a   59.4   59.5   59.4    70   49.6   7.0    NE   1.17  11.0   NNE   58.5   58.7   57.8   68.5  30.068  0.00  0.00   804    11.53    889     0.0  0.00   0.0   0.039   0.000   71.0    52   52.5   69.8   9.63  .0742    0.000   214    5    100.0   10 
 6/24/19 11:50a   59.1   59.5   59.1    70   49.3   6.0    NE   1.00  11.0    NE   58.5   58.4   57.8   68.7  30.068  0.00  0.00   724    10.38    773     0.0  0.00   0.0   0.041   0.000   71.0    52   52.5   69.8   9.63  .0742    0.000   211    5    100.0   10 
 6/24/19 12:00p   59.3   59.4   59.0    70   49.5   6.0    NE   1.00  11.0    NE   58.8   58.6   58.1   68.7  30.071  0.00  0.00   853    12.23    896     0.0  0.00   0.0   0.040   0.000   71.1    52   52.6   69.9   9.63  .0741    0.018   212    5    100.0   10 
 6/24/19 12:10p   59.3   59.3   59.1    71   49.9   7.0    NE   1.17  11.0    NE   58.4   58.7   57.8   67.2  30.069  0.00  0.00   893    12.80    909     0.0  0.00   0.0   0.040   0.000   71.2    52   52.7   70.1   9.63  .0741    0.000   214    5    100.0   10 
 6/24/19 12:20p   59.7   59.7   59.3    71   50.3   6.0    NE   1.00  10.0    NE   59.2   59.1   58.6   68.4  30.071  0.00  0.00   901    12.92    912     0.0  0.00   0.0   0.037   0.000   71.2    52   52.7   70.1   9.63  .0741    0.000   212    5    100.0   10 
 6/24/19 12:30p   59.8   59.9   59.6    71   50.4   7.0    NE   1.17  11.0   ENE   59.0   59.2   58.4   67.9  30.071  0.00  0.00   933    13.37    942     0.0  0.00   0.0   0.036   0.000   71.3    52   52.8   70.2   9.62  .0741    0.000   211    5    100.0   10 
 6/24/19 12:40p   60.0   60.0   59.7    70   50.2   8.0    NE   1.33  13.0    NE   58.5   59.4   57.9   66.7  30.068  0.00  0.00   922    13.22    944     0.0  0.00   0.0   0.035   0.000   71.4    52   52.9   70.4   9.62  .0741    0.000   214    5    100.0   10 
 6/24/19 12:50p   60.2   60.6   60.1    69   50.0   7.0    NE   1.17  12.0     E   59.4   59.5   58.7   69.7  30.067  0.00  0.00   776    11.12    872     0.0  0.00   0.0   0.033   0.000   71.5    52   52.9   70.5   9.62  .0741    0.000   209    5    100.0   10 
 6/24/19  1:00p   60.4   60.4   60.1    70   50.6   7.0    NE   1.17  12.0    NE   59.7   59.8   59.1   68.8  30.064  0.00  0.00   921    13.20    947     0.0  0.00   0.0   0.032   0.000   71.5    52   52.9   70.5   9.62  .0741    0.020   212    5    100.0   10 
 6/24/19  1:10p   60.6   60.8   60.4    70   50.8   8.0    NE   1.33  13.0    NE   59.2   60.0   58.6   67.5  30.063  0.00  0.00   943    13.52    962     0.0  0.00   0.0   0.031   0.000   71.6    52   53.0   70.7   9.62  .0740    0.000   212    5    100.0   10 
 6/24/19  1:20p   61.1   61.2   60.6    69   50.8   8.0    NE   1.33  12.0   NNE   59.8   60.5   59.2   67.9  30.062  0.00  0.00   936    13.42    956     0.0  0.00   0.0   0.027   0.000   71.7    52   53.1   70.8   9.62  .0740    0.000   211    5    100.0   10 
 6/24/19  1:30p   60.6   61.1   60.6    69   50.4   7.0    NE   1.17  12.0   NNE   59.9   60.0   59.3   69.5  30.060  0.00  0.00   911    13.06    939     0.0  0.00   0.0   0.031   0.000   71.8    52   53.2   71.0   9.61  .0740    0.000   212    5    100.0   10 
 6/24/19  1:40p   60.9   60.9   60.6    70   51.0   8.0    NE   1.33  12.0    NE   59.6   60.3   59.0   69.1  30.053  0.00  0.00   897    12.86    933     0.0  0.00   0.0   0.028   0.000   71.8    52   53.2   71.0   9.61  .0740    0.000   213    5    100.0   10 
 6/24/19  1:50p   61.3   61.3   60.9    69   51.0   9.0    NE   1.50  13.0   NNE   59.2   60.7   58.6   67.4  30.050  0.00  0.00   952    13.65    962     0.0  0.00   0.0   0.026   0.000   71.9    52   53.3   71.1   9.61  .0740    0.000   209    5    100.0   10 
 6/24/19  2:00p   61.5   61.5   61.2    69   51.2   7.0    NE   1.17  12.0   NNE   61.1   60.9   60.5   70.0  30.043  0.00  0.00   946    13.56    954     0.0  0.00   0.0   0.024   0.000   72.0    52   53.4   71.3   9.61  .0739    0.021   210    5    100.0   10 
 6/24/19  2:10p   62.0   62.0   61.4    68   51.3   8.0    NE   1.33  14.0    NE   60.9   61.4   60.3   69.2  30.043  0.00  0.00   918    13.16    954     0.0  0.00   0.0   0.021   0.000   72.1    52   53.5   71.4   9.61  .0739    0.000   213    5    100.0   10 
 6/24/19  2:20p   61.5   62.0   61.5    67   50.4   9.0    NE   1.50  13.0    NE   59.5   60.8   58.8   68.0  30.043  0.00  0.00   961    13.78    969     0.0  0.00   0.0   0.024   0.000   72.2    52   53.6   71.5   9.61  .0739    0.000   211    5    100.0   10 
 6/24/19  2:30p   61.8   61.9   61.4    68   51.1   8.0    NE   1.33  12.0   NNE   60.7   61.2   60.1   69.7  30.042  0.00  0.00   887    12.72    951     0.0  0.00   0.0   0.022   0.000   72.2    52   53.6   71.5   9.61  .0739    0.000   209    5    100.0   10 
 6/24/19  2:40p   62.0   62.0   61.8    67   50.9   8.0    NE   1.33  13.0   NNE   60.9   61.4   60.3   69.9  30.040  0.00  0.00   940    13.48    958     0.0  0.00   0.0   0.021   0.000   72.3    52   53.7   71.7   9.60  .0739    0.000   214    5    100.0   10 
 6/24/19  2:50p   62.2   62.2   62.0    66   50.7   8.0    NE   1.33  15.0   ENE   61.1   61.6   60.5   69.5  30.040  0.00  0.00   881    12.63    946     0.0  0.00   0.0   0.019   0.000   72.4    52   53.8   71.8   9.60  .0738    0.000   213    5    100.0   10 
 6/24/19  3:00p   62.5   62.5   62.1    67   51.4   7.0    NE   1.17  13.0   NNE   62.3   62.0   61.8   72.0  30.039  0.00  0.00   847    12.14    875     0.0  0.00   0.0   0.017   0.000   72.5    52   53.9   72.0   9.60  .0738    0.021   213    5    100.0   10 
 6/24/19  3:10p   62.3   62.5   62.3    65   50.4   9.0    NE   1.50  13.0    NE   60.4   61.6   59.7   68.8  30.034  0.00  0.00   881    12.63    925     0.0  0.00   0.0   0.019   0.000   72.6    52   54.0   72.1   9.60  .0738    0.000   211    5    100.0   10 
 6/24/19  3:20p   62.0   62.3   62.0    66   50.5   9.0    NE   1.50  16.0    NE   60.0   61.3   59.3   68.2  30.032  0.00  0.00   846    12.13    909     0.0  0.00   0.0   0.021   0.000   72.6    52   54.0   72.1   9.60  .0738    0.000   213    5    100.0   10 
 6/24/19  3:30p   61.9   62.0   61.6    66   50.4   9.0    NE   1.50  16.0   NNE   59.9   61.2   59.2   68.4  30.031  0.00  0.00   808    11.58    891     0.0  0.00   0.0   0.022   0.000   72.8    52   54.1   72.4   9.59  .0738    0.000   212    5    100.0   10 
 6/24/19  3:40p   61.7   62.0   61.7    67   50.6   7.0    NE   1.17  12.0   NNE   61.3   61.1   60.7   69.5  30.030  0.00  0.00   516     7.40    619     0.0  0.00   0.0   0.023   0.000   72.8    52   54.1   72.4   9.59  .0738    0.000   213    5    100.0   10 
 6/24/19  3:50p   61.6   61.6   61.3    68   50.9   6.0    NE   1.00  12.0    NE   61.5   61.0   60.9   71.3  30.030  0.00  0.00   629     9.02    847     0.0  0.00   0.0   0.024   0.000   72.8    52   54.1   72.4   9.59  .0738    0.000   213    5    100.0   10 
 6/24/19  4:00p   62.0   62.0   61.5    67   50.9   7.0    NE   1.17  11.0    NE   61.7   61.4   61.1   71.6  30.031  0.00  0.00   726    10.41    904     0.0  0.00   0.0   0.021   0.000   72.8    52   54.1   72.4   9.59  .0738    0.017   212    5    100.0   10 
 6/24/19  4:10p   61.2   62.1   61.2    67   50.2   8.0    NE   1.33  13.0   NNE   59.9   60.5   59.2   69.2  30.030  0.00  0.00   636     9.12    664     0.0  0.00   0.0   0.026   0.000   72.8    52   54.1   72.4   9.59  .0738    0.000   212    5    100.0   10 
 6/24/19  4:20p   61.9   61.9   61.2    68   51.2   7.0    NE   1.17  13.0    NE   61.6   61.3   61.0   71.5  30.028  0.00  0.00   672     9.63    703     0.0  0.00   0.0   0.022   0.000   72.9    52   54.2   72.6   9.59  .0737    0.000   213    5    100.0   10 
 6/24/19  4:30p   61.9   62.0   61.8    68   51.2   8.0    NE   1.33  13.0    NE   60.8   61.3   60.2   70.3  30.029  0.00  0.00   631     9.05    751     0.0  0.00   0.0   0.022   0.000   72.9    52   54.2   72.6   9.59  .0737    0.000   211    5    100.0   10 
 6/24/19  4:40p   61.9   62.2   61.9    68   51.2   8.0    NE   1.33  12.0    NE   60.8   61.3   60.2   70.2  30.029  0.00  0.00   639     9.16    751     0.0  0.00   0.0   0.022   0.000   73.0    52   54.3   72.7   9.59  .0737    0.000   214    5    100.0   10 
 6/24/19  4:50p   62.2   62.2   61.7    69   51.9   8.0    NE   1.33  12.0    NE   61.1   61.7   60.6   70.1  30.024  0.00  0.00   648     9.29    742     0.0  0.00   0.0   0.019   0.000   73.1    52   54.4   72.8   9.59  .0737    0.000   212    5    100.0   10 
 6/24/19  5:00p   62.3   62.6   62.3    68   51.6   7.0    NE   1.17  12.0    NE   62.1   61.8   61.6   71.8  30.024  0.00  0.00   552     7.91    654     0.0  0.00   0.0   0.019   0.000   73.1    52   54.4   72.8   9.59  .0737    0.015   210    5    100.0   10 
 6/24/19  5:10p   62.0   62.3   61.9    69   51.7   9.0    NE   1.50  13.0     N   60.0   61.5   59.5   69.9  30.022  0.00  0.00   663     9.50    687     0.0  0.00   0.0   0.021   0.000   73.2    52   54.5   72.9   9.59  .0737    0.000   213    5    100.0   10 
 6/24/19  5:20p   62.3   62.5   62.0    69   52.0   7.0    NE   1.17  12.0    NE   62.1   61.8   61.6   72.4  30.020  0.00  0.00   613     8.79    635     0.0  0.00   0.0   0.019   0.000   73.3    52   54.6   73.1   9.58  .0736    0.000   211    5    100.0   10 
 6/24/19  5:30p   62.2   62.3   62.0    69   51.9   7.0    NE   1.17  12.0   ENE   61.9   61.7   61.4   72.2  30.017  0.00  0.00   585     8.39    594     0.0  0.00   0.0   0.019   0.000   73.3    52   54.6   73.1   9.58  .0736    0.000   212    5    100.0   10 
 6/24/19  5:40p   62.5   62.6   62.2    68   51.8   7.0    NE   1.17  12.0    NE   62.3   62.0   61.8   71.7  30.013  0.00  0.00   524     7.51    589     0.0  0.00   0.0   0.017   0.000   73.4    52   54.7   73.2   9.58  .0736    0.000   212    5    100.0   10 
 6/24/19  5:50p   61.9   62.5   61.8    70   52.0   7.0    NE   1.17  12.0    NE   61.6   61.4   61.1   70.8  30.009  0.00  0.00   466     6.68    526     0.0  0.00   0.0   0.022   0.000   73.5    52   54.8   73.3   9.58  .0736    0.000   213    5    100.0   10 
 6/24/19  6:00p   61.7   62.0   61.7    69   51.4   7.0    NE   1.17  11.0   NNE   61.3   61.1   60.7   70.5  30.007  0.00  0.00   473     6.78    515     0.0  0.00   0.0   0.023   0.000   73.6    52   54.9   73.4   9.58  .0736    0.014   211    5    100.0   10 
 6/24/19  6:10p   61.6   61.7   61.5    70   51.7   6.0    NE   1.00  10.0    NE   61.5   61.1   61.0   71.1  30.010  0.00  0.00   451     6.47    469     0.0  0.00   0.0   0.024   0.000   73.6    52   54.9   73.4   9.58  .0736    0.000   212    5    100.0   10 
 6/24/19  6:20p   61.3   61.6   61.3    69   51.0   7.0    NE   1.17  12.0    NE   60.8   60.7   60.2   69.4  30.005  0.00  0.00   407     5.83    450     0.0  0.00   0.0   0.026   0.000   73.6    52   54.9   73.4   9.58  .0735    0.000   212    5    100.0   10 
 6/24/19  6:30p   60.9   61.4   60.9    69   50.7   7.0    NE   1.17  12.0    NE   60.3   60.3   59.7   67.9  30.003  0.00  0.00   324     4.64    390     0.0  0.00   0.0   0.028   0.000   73.7    52   55.0   73.5   9.58  .0735    0.000   213    5    100.0   10 
 6/24/19  6:40p   60.9   60.9   60.9    69   50.7   6.0    NE   1.00  11.0     N   60.7   60.3   60.1   69.7  29.998  0.00  0.00   373     5.35    403     0.0  0.00   0.0   0.028   0.000   73.8    52   55.1   73.7   9.57  .0735    0.000   210    5    100.0   10 
 6/24/19  6:50p   61.1   61.3   61.0    69   50.8   6.0    NE   1.00  12.0    NE   60.9   60.5   60.3   70.7  30.000  0.00  0.00   375     5.38    424     0.0  0.00   0.0   0.027   0.000   73.9    52   55.2   73.8   9.57  .0735    0.000   211    5    100.0   10 
 6/24/19  7:00p   61.4   61.6   61.2    67   50.3   6.0   NNE   1.00  12.0    NE   61.3   60.7   60.6   70.7  29.998  0.00  0.00   348     4.99    403     0.0  0.00   0.0   0.025   0.000   73.9    52   55.2   73.8   9.57  .0735    0.010   214    5    100.0   10 
 6/24/19  7:10p   61.2   61.4   61.2    67   50.2   5.0   ENE   0.83   9.0    NE   61.2   60.5   60.5   67.4  29.994  0.00  0.00   253     3.63    283     0.0  0.00   0.0   0.026   0.000   74.0    52   55.3   73.9   9.57  .0735    0.000   213    5    100.0   10 
 6/24/19  7:20p   60.4   61.2   60.4    68   49.8   6.0   ENE   1.00  10.0   NNE   60.1   59.7   59.4   65.1  29.993  0.00  0.00   215     3.08    251     0.0  0.00   0.0   0.032   0.000   74.0    52   55.3   73.9   9.57  .0734    0.000   213    5    100.0   10 
 6/24/19  7:30p   59.8   60.4   59.8    68   49.2   7.0   ENE   1.17  12.0   ENE   59.0   59.1   58.3   62.0  29.987  0.00  0.00   142     2.04    197     0.0  0.00   0.0   0.036   0.000   74.1    52   55.3   74.0   9.57  .0734    0.000   211    5    100.0   10 
 6/24/19  7:40p   59.6   59.8   59.6    68   49.0   6.0   ENE   1.00  13.0    NE   59.1   58.8   58.3   61.3  29.984  0.00  0.00   125     1.79    181     0.0  0.00   0.0   0.038   0.000   74.2    52   55.4   74.2   9.57  .0734    0.000   212    5    100.0   10 
 6/24/19  7:50p   58.9   59.5   58.9    69   48.7   5.0   ENE   0.83  11.0   ENE   58.7   58.1   57.9   58.9  29.983  0.00  0.00    68     0.97     79     0.0  0.00   0.0   0.042   0.000   74.2    52   55.4   74.2   9.57  .0734    0.000   211    5    100.0   10 
 6/24/19  8:00p   58.6   58.9   58.6    70   48.8   5.0   ENE   0.83   9.0     N   58.3   57.9   57.6   56.8  29.983  0.00  0.00    90     1.29    132     0.0  0.00   0.0   0.044   0.000   74.1    52   55.3   74.0   9.57  .0734    0.005   213    5    100.0   10 
 6/24/19  8:10p   58.9   58.9   58.6    70   49.1   4.0   ENE   0.67   9.0   ENE   58.9   58.2   58.2   57.9  29.981  0.00  0.00   112     1.61    121     0.0  0.00   0.0   0.042   0.000   74.0    52   55.3   73.9   9.57  .0734    0.000   212    5    100.0   10 
 6/24/19  8:20p   59.0   59.1   58.9    69   48.8   4.0   ENE   0.67   9.0    NE   59.0   58.2   58.2   57.5  29.977  0.00  0.00    93     1.33     98     0.0  0.00   0.0   0.042   0.000   74.0    51   54.7   73.8   9.37  .0734    0.000   213    5    100.0   10 
 6/24/19  8:30p   58.8   59.1   58.8    69   48.6   5.0   ENE   0.83   8.0   ENE   58.6   58.0   57.8   56.6  29.973  0.00  0.00    73     1.05     86     0.0  0.00   0.0   0.043   0.000   74.0    51   54.7   73.8   9.37  .0734    0.000   211    5    100.0   10 
 6/24/19  8:40p   58.3   58.9   58.3    70   48.6   5.0   ENE   0.83  10.0   ENE   58.0   57.5   57.2   55.3  29.968  0.00  0.00    43     0.62     54     0.0  0.00   0.0   0.047   0.000   73.9    51   54.6   73.7   9.37  .0734    0.000   213    5    100.0   10 
 6/24/19  8:50p   58.0   58.3   58.0    71   48.6   4.0   ENE   0.67   7.0   ENE   58.0   57.3   57.3   55.0  29.963  0.00  0.00    25     0.36     33     0.0  0.00   0.0   0.049   0.000   73.8    51   54.5   73.6   9.37  .0734    0.000   212    5    100.0   10 
 6/24/19  9:00p   57.4   57.9   57.4    71   48.1   3.0   ENE   0.50   7.0   NNE   57.4   56.7   56.7   54.1  29.968  0.00  0.00    13     0.19     18     0.0  0.00   0.0   0.053   0.000   73.7    51   54.4   73.4   9.38  .0735    0.002   210    5    100.0   10 
 6/24/19  9:10p   56.8   57.4   56.8    72   47.9   3.0    NE   0.50   5.0   NNE   56.8   56.1   56.1   53.3  29.968  0.00  0.00     5     0.07      9     0.0  0.00   0.0   0.057   0.000   73.6    51   54.4   73.3   9.38  .0735    0.000   213    5    100.0   10 
 6/24/19  9:20p   56.5   56.8   56.5    72   47.6   1.0    NE   0.17   5.0   ENE   56.5   55.8   55.8   52.9  29.969  0.00  0.00     0     0.00      0     0.0  0.00   0.0   0.059   0.000   73.6    51   54.4   73.3   9.38  .0735    0.000   213    5    100.0   10 
 6/24/19  9:30p   56.3   56.5   56.3    72   47.4   1.0    NE   0.17   3.0     E   56.3   55.6   55.6   52.7  29.965  0.00  0.00     0     0.00      0     0.0  0.00   0.0   0.060   0.000   73.6    51   54.4   73.3   9.38  .0735    0.000   213    5    100.0   10 
 6/24/19  9:40p   56.2   56.4   56.2    73   47.7   2.0     E   0.33   3.0     E   56.2   55.5   55.5   52.6  29.962  0.00  0.00     0     0.00      0     0.0  0.00   0.0   0.061   0.000   73.6    51   54.4   73.3   9.38  .0735    0.000   212    5    100.0   10 
 6/24/19  9:50p   56.0   56.2   56.0    73   47.5   1.0   ESE   0.17   3.0     E   56.0   55.3   55.3   52.4  29.963  0.00  0.00     0     0.00      0     0.0  0.00   0.0   0.063   0.000   73.6    51   54.4   73.3   9.38  .0735    0.000   211    5    100.0   10 
 6/24/19 10:00p   55.7   55.9   55.7    73   47.2   2.0   ESE   0.33   3.0   ESE   55.7   55.0   55.0   52.1  29.964  0.00  0.00     0     0.00      0     0.0  0.00   0.0   0.065   0.000   73.6    52   54.9   73.4   9.58  .0734    0.001   213    5    100.0   10 
 6/24/19 10:10p   55.4   55.7   55.4    73   46.9   1.0     E   0.17   2.0     E   55.4   54.8   54.8   51.9  29.964  0.00  0.00     0     0.00      0     0.0  0.00   0.0   0.067   0.000   73.5    52   54.8   73.3   9.58  .0735    0.000   213    5    100.0   10 
 6/24/19 10:20p   55.2   55.4   55.2    73   46.7   1.0   ENE   0.17   3.0   ENE   55.2   54.6   54.6   51.7  29.965  0.00  0.00     0     0.00      0     0.0  0.00   0.0   0.068   0.000   73.5    52   54.8   73.3   9.58  .0735    0.000   210    5    100.0   10 
 6/24/19 10:30p   55.1   55.3   55.1    74   47.0   0.0   ENE   0.00   2.0   ENE   55.1   54.5   54.5   51.6  29.968  0.00  0.00     0     0.00      0     0.0  0.00   0.0   0.069   0.000   73.5    52   54.8   73.3   9.58  .0735    0.000   214    5    100.0   10 
 6/24/19 10:40p   54.9   55.1   54.9    74   46.8   0.0   ENE   0.00   3.0   ENE   54.9   54.3   54.3   51.4  29.969  0.00  0.00     0     0.00      0     0.0  0.00   0.0   0.070   0.000   73.5    52   54.8   73.3   9.58  .0735    0.000   211    5    100.0   10 
 6/24/19 10:50p   54.7   54.9   54.6    74   46.6   0.0   ENE   0.00   2.0   ENE   54.7   54.1   54.1   51.2  29.968  0.00  0.00     0     0.00      0     0.0  0.00   0.0   0.072   0.000   73.5    52   54.8   73.3   9.58  .0735    0.000   212    5    100.0   10 
 6/24/19 11:00p   53.9   54.7   53.9    74   45.8   1.0     E   0.17   2.0   ENE   53.9   53.4   53.4   50.4  29.967  0.00  0.00     0     0.00      0     0.0  0.00   0.0   0.077   0.000   73.5    52   54.8   73.3   9.58  .0735    0.001   214    5    100.0   10 
 6/24/19 11:10p   53.7   53.9   53.7    74   45.6   0.0     E   0.00   1.0     E   53.7   53.2   53.2   50.2  29.964  0.00  0.00     0     0.00      0     0.0  0.00   0.0   0.078   0.000   73.5    52   54.8   73.3   9.58  .0735    0.000   212    5    100.0   10 
 6/24/19 11:20p   53.6   53.7   53.5    75   45.9   0.0     E   0.00   1.0     E   53.6   53.1   53.1   50.1  29.962  0.00  0.00     0     0.00      0     0.0  0.00   0.0   0.079   0.000   73.5    52   54.8   73.3   9.58  .0735    0.000   211    5    100.0   10 
 6/24/19 11:30p   53.6   53.6   53.5    75   45.9   0.0     E   0.00   1.0     E   53.6   53.1   53.1   50.1  29.961  0.00  0.00     0     0.00      0     0.0  0.00   0.0   0.079   0.000   73.4    52   54.7   73.2   9.58  .0735    0.000   214    5    100.0   10 
 6/24/19 11:40p   53.5   53.6   53.5    75   45.8   0.0     E   0.00   1.0     E   53.5   53.0   53.0   50.0  29.960  0.00  0.00     0     0.00      0     0.0  0.00   0.0   0.080   0.000   73.4    52   54.7   73.2   9.58  .0735    0.000   211    5    100.0   10 
 6/24/19 11:50p   53.5   53.6   53.5    76   46.1   0.0     E   0.00   1.0     E   53.5   53.0   53.0   50.1  29.958  0.00  0.00     0     0.00      0     0.0  0.00   0.0   0.080   0.000   73.4    52   54.7   73.2   9.58  .0735    0.000   212    5    100.0   10 
 6/25/19 12:00a   53.1   53.5   53.1    76   45.7   0.0     E   0.00   1.0     E   53.1   52.6   52.6   49.6  29.962  0.00  0.00     0     0.00      0     0.0  0.00   0.0   0.083   0.000   73.3    52   54.6   73.1   9.58  .0735    0.001   214    5    100.0   10 
 6/25/19 12:10a   53.0   53.1   53.0    76   45.6   0.0     E   0.00   1.0     E   53.0   52.5   52.5   49.5  29.960  0.00  0.00     0     0.00      0     0.0  0.00   0.0   0.083   0.000   73.3    52   54.6   73.1   9.58  .0735    0.000   211    5    100.0   10 
 6/25/19 12:20a   53.0   53.1   53.0    76   45.6   0.0     E   0.00   1.0     E   53.0   52.5   52.5   49.5  29.962  0.00  0.00     0     0.00      0     0.0  0.00   0.0   0.083   0.000   73.2    52   54.5   72.9   9.59  .0735    0.000   214    5    100.0   10 
 6/25/19 12:30a   53.0   53.1   53.0    77   46.0   1.0     E   0.17   2.0     E   53.0   52.6   52.6   49.6  29.958  0.00  0.00     0     0.00      0     0.0  0.00   0.0   0.083   0.000   73.2    52   54.5   72.9   9.59  .0735    0.000   211    5    100.0   10 
 6/25/19 12:40a   53.0   53.0   52.9    77   46.0   0.0     E   0.00   1.0     E   53.0   52.6   52.6   49.6  29.956  0.00  0.00     0     0.00      0     0.0  0.00   0.0   0.083   0.000   73.2    51   54.0   72.8   9.39  .0735    0.000   213    5    100.0   10 
 6/25/19 12:50a   52.9   53.0   52.9    77   45.9   0.0     E   0.00   1.0     E   52.9   52.5   52.5   49.5  29.954  0.00  0.00     0     0.00      0     0.0  0.00   0.0   0.084   0.000   73.2    51   54.0   72.8   9.39  .0735    0.000   213    5    100.0   10 
 6/25/19  1:00a   52.9   53.0   52.9    78   46.2   0.0     E   0.00   1.0     E   52.9   52.5   52.5   49.6  29.954  0.00  0.00     0     0.00      0     0.0  0.00   0.0   0.084   0.000   73.1    51   53.9   72.7   9.39  .0735    0.001   210    5    100.0   10 
 6/25/19  1:10a   52.8   52.9   52.8    78   46.1   0.0     E   0.00   2.0     E   52.8   52.4   52.4   49.5  29.953  0.00  0.00     0     0.00      0     0.0  0.00   0.0   0.085   0.000   73.1    51   53.9   72.7   9.39  .0735    0.000   213    5    100.0   10 
 6/25/19  1:20a   52.6   52.8   52.6    78   45.9   1.0     E   0.17   2.0     E   52.6   52.3   52.3   49.3  29.951  0.00  0.00     0     0.00      0     0.0  0.00   0.0   0.086   0.000   73.0    51   53.8   72.6   9.39  .0735    0.000   213    5    100.0   10 
 6/25/19  1:30a   52.5   52.6   52.5    79   46.2   0.0     E   0.00   2.0     E   52.5   52.2   52.2   49.3  29.947  0.00  0.00     0     0.00      0     0.0  0.00   0.0   0.087   0.000   73.0    51   53.8   72.6   9.39  .0735    0.000   212    5    100.0   10 
 6/25/19  1:40a   52.6   52.6   52.5    79   46.3   0.0     E   0.00   1.0     E   52.6   52.3   52.3   49.4  29.946  0.00  0.00     0     0.00      0     0.0  0.00   0.0   0.086   0.000   73.0    51   53.8   72.6   9.39  .0735    0.000   211    5    100.0   10 
 6/25/19  1:50a   52.8   52.8   52.6    80   46.8   0.0     E   0.00   1.0     E   52.8   52.5   52.5   49.6  29.946  0.00  0.00     0     0.00      0     0.0  0.00   0.0   0.085   0.000   72.9    51   53.7   72.5   9.39  .0735    0.000   213    5    100.0   10 
 6/25/19  2:00a   53.1   53.1   52.8    80   47.1   1.0     E   0.17   2.0     E   53.1   52.8   52.8   49.9  29.947  0.00  0.00     0     0.00      0     0.0  0.00   0.0   0.083   0.000   72.9    51   53.7   72.5   9.39  .0735    0.001   213    5    100.0   10 
 6/25/19  2:10a   53.3   53.3   53.1    80   47.3   0.0   ESE   0.00   1.0   ESE   53.3   53.0   53.0   50.1  29.942  0.00  0.00     0     0.00      0     0.0  0.00   0.0   0.081   0.000   72.8    51   53.6   72.3   9.39  .0736    0.000   212    5    100.0   10 
 6/25/19  2:20a   53.4   53.4   53.3    80   47.4   0.0   ---   0.00   0.0   ---   53.4   53.1   53.1   50.2  29.942  0.00  0.00     0     0.00      0     0.0  0.00   0.0   0.081   0.000   72.8    51   53.6   72.3   9.39  .0736    0.000   213    5    100.0   10 
 6/25/19  2:30a   53.3   53.4   53.3    80   47.3   0.0   ESE   0.00   1.0   ESE   53.3   53.0   53.0   50.1  29.941  0.00  0.00     0     0.00      0     0.0  0.00   0.0   0.081   0.000   72.7    51   53.5   72.2   9.40  .0736    0.000   212    5    100.0   10 
 6/25/19  2:40a   53.2   53.3   53.2    80   47.2   0.0   ESE   0.00   1.0   ESE   53.2   52.9   52.9   50.0  29.935  0.00  0.00     0     0.00      0     0.0  0.00   0.0   0.082   0.000   72.7    51   53.5   72.2   9.40  .0736    0.000   213    5    100.0   10 
 6/25/19  2:50a   53.1   53.2   53.1    81   47.4   0.0   ---   0.00   0.0   ---   53.1   52.8   52.8   49.9  29.935  0.00  0.00     0     0.00      0     0.0  0.00   0.0   0.083   0.000   72.7    51   53.5   72.2   9.40  .0736    0.000   212    5    100.0   10 
 6/25/19  3:00a   53.2   53.2   53.1    81   47.5   0.0   ---   0.00   0.0   ---   53.2   52.9   52.9   50.0  29.931  0.00  0.00     0     0.00      0     0.0  0.00   0.0   0.082   0.000   72.6    51   53.4   72.0   9.40  .0736    0.001   212    5    100.0   10 
 6/25/19  3:10a   52.9   53.2   52.9    81   47.2   0.0   ---   0.00   0.0   ---   52.9   52.7   52.7   49.8  29.936  0.00  0.00     0     0.00      0     0.0  0.00   0.0   0.084   0.000   72.6    51   53.4   72.0   9.40  .0736    0.000   212    5    100.0   10 
 6/25/19  3:20a   53.0   53.0   52.9    81   47.3   0.0   ---   0.00   0.0   ---   53.0   52.7   52.7   49.8  29.936  0.00  0.00     0     0.00      0     0.0  0.00   0.0   0.083   0.000   72.5    51   53.3   71.9   9.40  .0736    0.000   211    5    100.0   10 
 6/25/19  3:30a   53.0   53.0   53.0    81   47.3   0.0   ---   0.00   0.0   ---   53.0   52.7   52.7   49.8  29.931  0.00  0.00     0     0.00      0     0.0  0.00   0.0   0.083   0.000   72.5    51   53.3   71.9   9.40  .0736    0.000   212    5    100.0   10 
 6/25/19  3:40a   52.9   53.0   52.9    81   47.2   0.0   ---   0.00   0.0   ---   52.9   52.7   52.7   49.8  29.933  0.00  0.00     0     0.00      0     0.0  0.00   0.0   0.084   0.000   72.4    51   53.2   71.7   9.40  .0736    0.000   212    5    100.0   10 
 6/25/19  3:50a   53.0   53.0   52.9    81   47.3   0.0   SSE   0.00   1.0   SSE   53.0   52.7   52.7   49.8  29.931  0.00  0.00     0     0.00      0     0.0  0.00   0.0   0.083   0.000   72.4    51   53.2   71.7   9.40  .0736    0.000   213    5    100.0   10 
 6/25/19  4:00a   52.5   53.0   52.5    81   46.8   1.0   SSW   0.17   3.0   SSW   52.5   52.3   52.3   49.4  29.929  0.00  0.00     0     0.00      0     0.0  0.00   0.0   0.087   0.000   72.3    51   53.2   71.6   9.40  .0736    0.001   210    5    100.0   10 
 6/25/19  4:10a   52.5   52.5   52.4    82   47.2   0.0   SSW   0.00   2.0   SSW   52.5   52.3   52.3   49.4  29.928  0.00  0.00     0     0.00      0     0.0  0.00   0.0   0.087   0.000   72.3    51   53.2   71.6   9.40  .0736    0.000   213    5    100.0   10 
 6/25/19  4:20a   52.1   52.5   52.1    82   46.8   2.0     S   0.33   6.0   SSW   52.1   52.0   52.0   49.1  29.930  0.00  0.00     0     0.00      0     0.0  0.00   0.0   0.090   0.000   72.3    51   53.2   71.6   9.40  .0736    0.000   213    5    100.0   10 
 6/25/19  4:30a   51.9   52.2   51.8    82   46.6   2.0     S   0.33   4.0     S   51.9   51.8   51.8   48.9  29.931  0.00  0.00     0     0.00      0     0.0  0.00   0.0   0.091   0.000   72.2    51   53.1   71.5   9.41  .0736    0.000   212    5    100.0   10 
 6/25/19  4:40a   52.4   52.4   51.9    82   47.1   2.0     S   0.33   5.0    SW   52.4   52.2   52.2   49.3  29.931  0.00  0.00     0     0.00      0     0.0  0.00   0.0   0.087   0.000   72.2    51   53.1   71.5   9.41  .0736    0.000   213    5    100.0   10 
 6/25/19  4:50a   52.6   52.6   52.4    82   47.3   2.0   SSW   0.33   4.0   SSW   52.6   52.4   52.4   49.5  29.927  0.00  0.00     0     0.00      0     0.0  0.00   0.0   0.086   0.000   72.1    51   53.0   71.3   9.41  .0736    0.000   211    5    100.0   10 
 6/25/19  5:00a   52.4   52.6   52.3    82   47.1   1.0   SSW   0.17   4.0   SSW   52.4   52.2   52.2   49.3  29.930  0.00  0.00     0     0.00      0     0.0  0.00   0.0   0.087   0.000   72.1    51   53.0   71.3   9.41  .0736    0.001   210    5    100.0   10 
 6/25/19  5:10a   52.4   52.4   52.3    83   47.4   1.0   SSW   0.17   3.0   SSW   52.4   52.3   52.3   49.4  29.932  0.00  0.00     0     0.00      0     0.0  0.00   0.0   0.087   0.000   72.0    51   52.9   71.2   9.41  .0737    0.000   209    5    100.0   10 
 6/25/19  5:20a   52.6   52.6   52.4    83   47.6   1.0     S   0.17   4.0   SSW   52.6   52.5   52.5   49.6  29.932  0.00  0.00     0     0.00      0     0.0  0.00   0.0   0.086   0.000   72.0    51   52.9   71.2   9.41  .0737    0.000   212    5    100.0   10 
 6/25/19  5:30a   52.7   52.7   52.5    83   47.7   1.0     S   0.17   3.0     S   52.7   52.5   52.5   49.6  29.930  0.00  0.00     0     0.00      0     0.0  0.00   0.0   0.085   0.000   72.0    51   52.9   71.2   9.41  .0737    0.000   210    5    100.0   10 
 6/25/19  5:40a   52.9   52.9   52.7    83   47.9   1.0     S   0.17   2.0     S   52.9   52.7   52.7   49.8  29.928  0.00  0.00     0     0.00      0     0.0  0.00   0.0   0.084   0.000   71.9    51   52.8   71.0   9.41  .0737    0.000   212    5    100.0   10 
 6/25/19  5:50a   53.0   53.0   52.9    83   48.0   1.0   SSE   0.17   3.0   SSE   53.0   52.8   52.8   50.0  29.927  0.00  0.00     4     0.06      5     0.0  0.00   0.0   0.083   0.000   71.9    51   52.8   71.0   9.41  .0737    0.000   212    5    100.0   10 
 6/25/19  6:00a   53.0   53.1   53.0    83   48.0   1.0   SSE   0.17   4.0   SSE   53.0   52.8   52.8   50.0  29.927  0.00  0.00     6     0.09      7     0.0  0.00   0.0   0.083   0.000   71.8    51   52.7   70.9   9.41  .0737    0.000   212    5    100.0   10 
 6/25/19  6:10a   53.1   53.1   53.0    84   48.4   1.0     S   0.17   2.0     S   53.1   53.0   53.0   50.3  29.929  0.00  0.00     8     0.11     11     0.0  0.00   0.0   0.083   0.000   71.8    51   52.7   70.9   9.41  .0737    0.000   211    5    100.0   10 
 6/25/19  6:20a   52.9   53.1   52.9    84   48.2   1.0     S   0.17   4.0     S   52.9   52.8   52.8   50.3  29.930  0.01  0.00    14     0.20     16     0.0  0.00   0.0   0.084   0.000   71.8    51   52.7   70.9   9.41  .0737    0.000   212    5    100.0   10 
 6/25/19  6:30a   52.9   53.0   52.9    84   48.2   1.0     S   0.17   3.0     S   52.9   52.8   52.8   50.4  29.933  0.00  0.00    20     0.29     26     0.0  0.00   0.0   0.084   0.000   71.7    51   52.6   70.7   9.42  .0737    0.000   212    5    100.0   10 
 6/25/19  6:40a   52.5   52.9   52.5    85   48.1   2.0     S   0.33   4.0     S   52.5   52.5   52.5   50.5  29.934  0.00  0.00    37     0.53     42     0.0  0.00   0.0   0.087   0.000   71.7    51   52.6   70.7   9.42  .0737    0.000   213    5    100.0   10 
 6/25/19  6:50a   52.5   52.6   52.5    85   48.1   2.0   SSW   0.33   5.0   SSE   52.5   52.5   52.5   52.2  29.936  0.01  0.00    36     0.52     40     0.0  0.00   0.0   0.087   0.000   71.7    51   52.6   70.7   9.42  .0737    0.000   214    5    100.0   10 
 6/25/19  7:00a   52.5   52.5   52.3    86   48.4   3.0   SSW   0.50   6.0   SSW   52.5   52.5   52.5   52.2  29.935  0.00  0.00    35     0.50     42     0.0  0.00   0.0   0.087   0.000   71.6    51   52.5   70.6   9.42  .0737    0.001   211    5    100.0   10 
 6/25/19  7:10a   52.2   52.5   52.2    86   48.1   5.0   SSW   0.83   7.0   SSW   50.8   52.2   50.8   51.2  29.937  0.00  0.00    52     0.75     58     0.1  0.01   0.9   0.089   0.000   71.6    51   52.5   70.6   9.42  .0737    0.000   213    5    100.0   10 
 6/25/19  7:20a   52.2   52.4   52.2    87   48.4   5.0   SSW   0.83   8.0   SSW   50.8   52.3   50.9   51.2  29.938  0.01  0.00    52     0.75     58     0.3  0.02   1.1   0.089   0.000   71.6    51   52.5   70.6   9.42  .0737    0.000   213    5    100.0   10 
 6/25/19  7:30a   52.2   52.2   52.1    87   48.4   4.0   SSW   0.67   6.0   SSW   51.4   52.3   51.5   51.5  29.937  0.00  0.00    47     0.67     58     0.2  0.01   1.8   0.089   0.000   71.6    51   52.5   70.6   9.42  .0737    0.000   211    5    100.0   10 
 6/25/19  7:40a   52.3   52.3   52.2    88   48.9   4.0   SSW   0.67   7.0   SSW   51.5   52.4   51.6   52.9  29.937  0.00  0.00    80     1.15     90     0.8  0.06   2.1   0.088   0.000   71.6    51   52.5   70.6   9.42  .0737    0.000   213    5    100.0   10 
 6/25/19  7:50a   52.2   52.3   52.2    88   48.8   4.0   SSW   0.67   6.0   SSW   51.4   52.3   51.5   53.9  29.936  0.00  0.00   111     1.59    123     0.0  0.00   0.0   0.089   0.000   71.6    51   52.5   70.6   9.42  .0737    0.000   212    5    100.0   10 
 6/25/19  8:00a   52.2   52.2   52.1    88   48.8   4.0   SSW   0.67   6.0   SSW   51.4   52.3   51.5   55.3  29.936  0.00  0.00   155     2.22    179     0.0  0.00   0.0   0.089   0.000   71.7    51   52.6   70.7   9.42  .0737    0.002   212    5    100.0   10 
 6/25/19  8:10a   51.8   52.2   51.7    88   48.4   5.0   SSW   0.83   8.0     S   50.4   51.9   50.5   55.8  29.935  0.00  0.00   203     2.91    216     0.0  0.00   0.0   0.092   0.000   71.7    51   52.6   70.7   9.42  .0737    0.000   214    5    100.0   10 
 6/25/19  8:20a   51.7   51.8   51.6    89   48.6   7.0   SSW   1.17  10.0    SW   49.2   51.9   49.4   53.1  29.935  0.00  0.00   166     2.38    181     0.0  0.00   0.0   0.092   0.000   71.7    51   52.6   70.7   9.42  .0737    0.000   211    5    100.0   10 
 6/25/19  8:30a   51.7   51.8   51.6    89   48.6   7.0   SSW   1.17  10.0   SSW   49.2   51.9   49.4   53.2  29.938  0.00  0.00   173     2.48    197     0.0  0.00   0.0   0.092   0.000   71.7    51   52.6   70.7   9.42  .0737    0.000   212    5    100.0   10 
 6/25/19  8:40a   51.7   51.8   51.7    89   48.6   7.0   SSW   1.17  10.0   SSW   49.2   51.9   49.4   53.0  29.936  0.00  0.00   170     2.44    192     0.0  0.00   0.0   0.092   0.000   71.7    51   52.6   70.7   9.42  .0737    0.000   212    5    100.0   10 
 6/25/19  8:50a   51.9   52.1   51.7    89   48.8   7.0   SSW   1.17  10.0     S   49.5   52.1   49.7   53.4  29.936  0.00  0.00   182     2.61    207     0.0  0.00   0.0   0.091   0.000   71.8    51   52.7   70.9   9.41  .0737    0.000   211    5    100.0   10 
 6/25/19  9:00a   52.0   52.0   51.8    89   48.9   6.0   SSW   1.00  10.0     S   50.0   52.2   50.2   56.1  29.935  0.00  0.00   263     3.77    308     0.0  0.00   0.0   0.090   0.000   71.8    51   52.7   70.9   9.41  .0737    0.004   211    5    100.0   10 
 6/25/19  9:10a   52.0   52.0   51.7    89   48.9   6.0   SSW   1.00  11.0    SW   50.0   52.2   50.2   57.0  29.932  0.00  0.00   307     4.40    327     0.0  0.00   0.0   0.090   0.000   71.8    51   52.7   70.9   9.41  .0737    0.000   210    5    100.0   10 
 6/25/19  9:20a   51.7   52.0   51.7    89   48.6   7.0   SSW   1.17  10.0    SW   49.2   51.9   49.4   56.3  29.932  0.00  0.00   330     4.73    346     0.0  0.00   0.0   0.092   0.000   71.9    51   52.8   71.0   9.41  .0737    0.000   212    5    100.0   10 
 6/25/19  9:30a   51.5   51.7   51.4    90   48.7   7.0   SSW   1.17  11.0   SSE   49.0   51.7   49.2   54.9  29.934  0.00  0.00   283     4.06    304     0.0  0.00   0.0   0.094   0.000   71.9    51   52.8   71.0   9.41  .0737    0.000   212    5    100.0   10 
 6/25/19  9:40a   51.5   51.5   51.3    90   48.7   6.0   SSW   1.00   9.0    SW   49.5   51.7   49.7   55.1  29.933  0.00  0.00   269     3.86    302     0.0  0.00   0.0   0.094   0.000   72.0    51   52.9   71.2   9.41  .0737    0.000   214    5    100.0   10 
 6/25/19  9:50a   51.8   51.8   51.5    90   49.0   7.0   SSW   1.17  10.0   SSW   49.4   52.0   49.6   54.7  29.933  0.00  0.00   271     3.88    318     0.0  0.00   0.0   0.092   0.000   72.0    51   52.9   71.2   9.41  .0737    0.000   212    5    100.0   10 
 6/25/19 10:00a   51.9   51.9   51.7    90   49.1   8.0   SSW   1.33  12.0     S   48.8   52.1   49.0   54.4  29.936  0.00  0.00   299     4.29    348     0.0  0.00   0.0   0.091   0.000   72.0    51   52.9   71.2   9.41  .0737    0.006   211    5    100.0   10 
 6/25/19 10:10a   52.1   52.1   51.8    90   49.3   9.0   SSW   1.50  13.0   SSW   48.3   52.3   48.5   54.2  29.935  0.00  0.00   328     4.70    396     0.0  0.00   0.0   0.090   0.000   72.0    51   52.9   71.2   9.41  .0737    0.000   211    5    100.0   10 
 6/25/19 10:20a   52.4   52.4   52.1    90   49.6  10.0   SSW   1.67  14.0    SW   48.1   52.6   48.3   54.7  29.937  0.00  0.00   392     5.62    406     0.0  0.00   0.0   0.087   0.000   72.1    51   53.0   71.3   9.41  .0737    0.000   211    5    100.0   10 
 6/25/19 10:30a   52.5   52.6   52.4    90   49.7   9.0   SSW   1.50  13.0   SSW   48.8   52.7   49.0   55.0  29.937  0.00  0.00   360     5.16    408     0.0  0.00   0.0   0.087   0.000   72.1    51   53.0   71.3   9.41  .0737    0.000   212    5    100.0   10 
 6/25/19 10:40a   52.6   52.6   52.4    90   49.8   9.0   SSW   1.50  13.0   SSW   48.9   52.7   49.0   55.2  29.938  0.00  0.00   379     5.43    424     0.0  0.00   0.0   0.086   0.000   72.2    51   53.1   71.5   9.41  .0736    0.000   210    5    100.0   10 
 6/25/19 10:50a   52.8   52.9   52.6    90   49.9   8.0   SSW   1.33  12.0   SSE   49.9   52.9   50.0   57.5  29.939  0.00  0.00   448     6.42    536     0.0  0.00   0.0   0.085   0.000   72.3    51   53.2   71.6   9.40  .0736    0.000   210    5    100.0   10 
 6/25/19 11:00a   52.8   53.0   52.8    90   49.9  10.0   SSW   1.67  15.0   SSE   48.6   52.9   48.7   55.8  29.939  0.00  0.00   465     6.67    506     0.0  0.00   0.0   0.085   0.000   72.3    51   53.2   71.6   9.40  .0736    0.008   211    5    100.0   10 
 6/25/19 11:10a   53.0   53.0   52.8    90   50.1  11.0   SSW   1.83  17.0   SSW   48.2   53.1   48.3   55.3  29.940  0.00  0.00   469     6.72    501     0.0  0.00   0.0   0.083   0.000   72.3    51   53.2   71.6   9.40  .0736    0.000   208    5    100.0   10 
 6/25/19 11:20a   52.6   53.0   52.6    90   49.8  11.0   SSW   1.83  15.0     S   47.8   52.7   47.9   54.7  29.941  0.00  0.00   466     6.68    559     0.0  0.00   0.0   0.086   0.000   72.4    51   53.2   71.7   9.40  .0736    0.000   209    5    100.0   10 
 6/25/19 11:30a   52.8   52.8   52.6    90   49.9  11.0   SSW   1.83  16.0   SSE   48.0   52.9   48.1   55.6  29.940  0.00  0.00   517     7.41    575     0.0  0.00   0.0   0.085   0.000   72.4    51   53.2   71.7   9.40  .0736    0.000   211    5    100.0   10 
 6/25/19 11:40a   52.9   53.1   52.8    90   50.0  12.0   SSW   2.00  19.0   SSE   47.6   53.0   47.7   55.4  29.940  0.00  0.00   567     8.13    882     0.0  0.00   0.0   0.084   0.000   72.5    51   53.3   71.9   9.40  .0736    0.000   213    5    100.0   10 
 6/25/19 11:50a   53.4   53.4   52.9    90   50.5  11.0   SSW   1.83  16.0   SSW   48.7   53.5   48.8   56.5  29.940  0.00  0.00   546     7.83    585     0.0  0.00   0.0   0.081   0.000   72.5    51   53.3   71.9   9.40  .0736    0.000   213    5    100.0   10 
 6/25/19 12:00p   53.3   53.5   53.3    89   50.1  13.0   SSW   2.17  19.0   SSE   47.6   53.4   47.7   55.2  29.942  0.00  0.00   570     8.17    596     0.0  0.00   0.0   0.081   0.000   72.6    51   53.4   72.0   9.40  .0736    0.011   210    5    100.0   10 
 6/25/19 12:10p   54.1   54.1   53.2    90   51.2  12.0   SSW   2.00  18.0     S   49.0   54.2   49.1   57.3  29.940  0.00  0.00   615     8.82    664     0.0  0.00   0.0   0.076   0.000   72.7    51   53.5   72.2   9.40  .0736    0.000   212    5    100.0   10 
 6/25/19 12:20p   54.8   54.8   54.1    89   51.6  12.0   SSW   2.00  18.0     S   49.8   54.9   49.9   58.5  29.939  0.00  0.00   664     9.52    740     0.0  0.00   0.0   0.071   0.000   72.7    51   53.5   72.2   9.40  .0736    0.000   212    5    100.0   10 
 6/25/19 12:30p   54.4   54.9   54.4    88   50.9  13.0   SSW   2.17  19.0     S   48.9   54.4   48.9   57.7  29.940  0.00  0.00   823    11.80   1018     0.0  0.00   0.0   0.074   0.000   72.8    51   53.6   72.3   9.39  .0735    0.000   212    5    100.0   10 
 6/25/19 12:40p   54.5   54.5   54.1    88   51.0  13.0   SSW   2.17  18.0     S   49.0   54.5   49.0   57.3  29.939  0.00  0.00   658     9.43    679     0.0  0.00   0.0   0.073   0.000   72.9    51   53.7   72.5   9.39  .0735    0.000   214    5    100.0   10 
 6/25/19 12:50p   54.5   54.6   54.4    88   51.0  14.0   SSW   2.33  20.0   SSW   48.7   54.5   48.7   57.2  29.941  0.00  0.00   773    11.08   1297     0.0  0.00   0.0   0.073   0.000   72.9    51   53.7   72.5   9.39  .0735    0.000   213    5    100.0   10 
 6/25/19  1:00p   55.3   55.3   54.5    88   51.8  14.0   SSW   2.33  21.0   SSE   49.5   55.3   49.5   57.0  29.942  0.00  0.00   968    13.88   1206     0.0  0.00   0.0   0.067   0.000   73.0    51   53.8   72.6   9.39  .0735    0.017   209    5    100.0   10 
 6/25/19  1:10p   56.4   56.4   55.3    87   52.6  12.0   SSW   2.00  19.0   SSE   51.6   56.4   51.6   61.0  29.945  0.00  0.00  1090    15.63   1162     0.0  0.00   0.0   0.060   0.000   73.1    51   53.9   72.7   9.39  .0735    0.000   209    5    100.0   10 
 6/25/19  1:20p   56.9   57.2   56.5    84   52.1  11.0   SSW   1.83  18.0   SSW   52.8   56.8   52.7   61.8  29.942  0.00  0.00  1042    14.94   1172     0.0  0.00   0.0   0.056   0.000   73.1    51   53.9   72.7   9.39  .0735    0.000   213    5    100.0   10 
 6/25/19  1:30p   55.9   57.0   55.8    85   51.5  12.0   SSW   2.00  17.0   SSW   51.1   55.8   51.0   59.5  29.944  0.00  0.00  1015    14.55   1058     0.0  0.00   0.0   0.063   0.000   73.1    51   53.9   72.7   9.39  .0735    0.000   209    5    100.0   10 
 6/25/19  1:40p   55.2   55.9   55.1    86   51.1  13.0   SSW   2.17  17.0   SSE   49.8   55.1   49.7   57.7  29.940  0.00  0.00   996    14.28   1032     0.0  0.00   0.0   0.068   0.000   73.1    51   53.9   72.7   9.39  .0735    0.000   213    5    100.0   10 
 6/25/19  1:50p   55.1   55.3   55.0    86   51.0  12.0   SSW   2.00  16.0    SW   50.1   55.0   50.0   58.8  29.941  0.00  0.00   884    12.67   1035     0.0  0.00   0.0   0.069   0.000   73.2    51   54.0   72.8   9.39  .0735    0.000   211    5    100.0   10 
 6/25/19  2:00p   54.9   55.1   54.8    86   50.8  13.0   SSW   2.17  19.0     S   49.5   54.8   49.4   57.3  29.943  0.00  0.00   977    14.01   1018     0.0  0.00   0.0   0.070   0.000   73.2    51   54.0   72.8   9.39  .0735    0.020   211    5    100.0   10 
 6/25/19  2:10p   55.2   55.2   54.9    86   51.1  14.0   SSW   2.33  19.0     S   49.4   55.1   49.3   57.8  29.946  0.00  0.00   833    11.94   1013     0.0  0.00   0.0   0.068   0.000   73.2    51   54.0   72.8   9.39  .0735    0.000   212    5    100.0   10 
 6/25/19  2:20p   55.4   55.4   55.2    86   51.3  13.0   SSW   2.17  19.0   SSW   50.0   55.3   49.9   58.2  29.946  0.00  0.00   983    14.09   1236     0.0  0.00   0.0   0.067   0.000   73.3    51   54.1   73.0   9.38  .0735    0.000   213    5    100.0   10 
 6/25/19  2:30p   55.9   55.9   55.3    86   51.8  12.0   SSW   2.00  17.0     S   51.1   55.8   51.0   60.0  29.946  0.00  0.00  1014    14.54   1194     0.0  0.00   0.0   0.063   0.000   73.3    51   54.1   73.0   9.38  .0735    0.000   210    5    100.0   10 
 6/25/19  2:40p   55.6   55.9   55.5    86   51.5  11.0   SSW   1.83  15.0   SSE   51.3   55.5   51.2   60.5  29.949  0.00  0.00   799    11.45    997     0.0  0.00   0.0   0.065   0.000   73.4    51   54.2   73.1   9.38  .0735    0.000   214    5    100.0   10 
 6/25/19  2:50p   55.0   55.7   54.8    86   50.9  12.0   SSW   2.00  16.0   SSW   50.0   54.9   49.9   58.3  29.951  0.00  0.00   635     9.10    726     0.0  0.00   0.0   0.069   0.000   73.5    51   54.3   73.2   9.38  .0735    0.000   210    5    100.0   10 
 6/25/19  3:00p   55.7   55.7   55.0    87   51.9  12.0   SSW   2.00  19.0   SSE   50.8   55.7   50.8   59.7  29.951  0.00  0.00   706    10.12    912     0.0  0.00   0.0   0.065   0.000   73.5    51   54.3   73.2   9.38  .0735    0.017   211    5    100.0   10 
 6/25/19  3:10p   55.3   55.8   55.3    87   51.5  13.0   SSW   2.17  18.0   SSW   49.9   55.3   49.9   58.0  29.950  0.00  0.00   892    12.79   1005     0.0  0.00   0.0   0.067   0.000   73.6    51   54.4   73.3   9.38  .0734    0.000   214    5    100.0   10 
 6/25/19  3:20p   55.2   55.4   55.2    87   51.4  11.0   SSW   1.83  17.0     S   50.8   55.2   50.8   59.5  29.948  0.00  0.00   631     9.05    997     0.0  0.00   0.0   0.068   0.000   73.5    51   54.3   73.2   9.38  .0734    0.000   213    5    100.0   10 
 6/25/19  3:30p   55.3   55.4   55.1    87   51.5  10.0   SSW   1.67  14.0    SW   51.5   55.3   51.5   60.1  29.945  0.00  0.00   824    11.81   1035     0.0  0.00   0.0   0.067   0.000   73.5    51   54.3   73.2   9.38  .0734    0.000   211    5    100.0   10 
 6/25/19  3:40p   55.4   55.5   55.1    87   51.6  10.0   SSW   1.67  14.0   SSW   51.6   55.4   51.6   60.7  29.943  0.00  0.00   788    11.30   1088     0.0  0.00   0.0   0.067   0.000   73.5    51   54.3   73.2   9.38  .0734    0.000   213    5    100.0   10 
 6/25/19  3:50p   55.1   55.5   55.1    87   51.3  10.0   SSW   1.67  13.0    SW   51.2   55.1   51.2   60.9  29.943  0.00  0.00   857    12.29    893     0.0  0.00   0.0   0.069   0.000   73.5    51   54.3   73.2   9.38  .0734    0.000   213    5    100.0   10 
 6/25/19  4:00p   54.9   55.1   54.9    88   51.4   9.0   SSW   1.50  13.0   SSE   51.7   54.9   51.7   61.5  29.944  0.00  0.00   693     9.93    816     0.0  0.00   0.0   0.070   0.000   73.6    51   54.4   73.3   9.38  .0734    0.016   212    5    100.0   10 
 6/25/19  4:10p   55.1   55.1   54.9    88   51.6  10.0   SSW   1.67  14.0    SE   51.2   55.1   51.2   60.4  29.945  0.00  0.00   631     9.05    701     0.0  0.00   0.0   0.069   0.000   73.7    51   54.4   73.4   9.38  .0734    0.000   211    5    100.0   10 
 6/25/19  4:20p   55.1   55.1   54.9    88   51.6  10.0   SSW   1.67  14.0   SSE   51.2   55.1   51.2   60.1  29.945  0.00  0.00   573     8.21    643     0.0  0.00   0.0   0.069   0.000   73.8    51   54.5   73.6   9.37  .0734    0.000   212    5    100.0   10 
 6/25/19  4:30p   55.3   55.4   55.0    88   51.8   8.0   SSW   1.33  12.0   SSW   52.9   55.3   52.9   62.4  29.944  0.00  0.00   556     7.97    638     0.0  0.00   0.0   0.067   0.000   73.8    51   54.5   73.6   9.37  .0734    0.000   211    5    100.0   10 
 6/25/19  4:40p   55.6   55.6   55.3    88   52.1   8.0   SSW   1.33  13.0   SSE   53.2   55.6   53.2   63.3  29.943  0.00  0.00   634     9.09    717     0.0  0.00   0.0   0.065   0.000   73.9    51   54.6   73.7   9.37  .0734    0.000   212    5    100.0   10 
 6/25/19  4:50p   55.1   55.6   55.1    88   51.6   8.0   SSW   1.33  11.0   SSW   52.6   55.1   52.6   62.1  29.942  0.00  0.00   651     9.33    703     0.0  0.00   0.0   0.069   0.000   73.9    51   54.6   73.7   9.37  .0734    0.000   212    5    100.0   10 
 6/25/19  5:00p   55.0   55.2   55.0    88   51.5   7.0   SSW   1.17  10.0     S   53.2   55.0   53.2   63.0  29.940  0.00  0.00   621     8.90    712     0.0  0.00   0.0   0.069   0.000   74.0    51   54.7   73.8   9.37  .0733    0.013   213    5    100.0   10 
 6/25/19  5:10p   54.6   55.0   54.6    88   51.1   7.0   SSW   1.17  10.0   SSW   52.7   54.6   52.7   63.0  29.940  0.00  0.00   617     8.84    642     0.0  0.00   0.0   0.072   0.000   74.0    51   54.7   73.8   9.37  .0733    0.000   211    5    100.0   10 
 6/25/19  5:20p   54.4   54.6   54.3    88   50.9   7.0   SSW   1.17   9.0     S   52.5   54.4   52.5   63.5  29.938  0.00  0.00   629     9.02    682     0.0  0.00   0.0   0.074   0.000   74.1    51   54.8   73.9   9.37  .0733    0.000   213    5    100.0   10 
 6/25/19  5:30p   54.6   54.6   54.1    88   51.1   6.0   SSW   1.00  10.0   SSE   53.1   54.6   53.1   64.9  29.937  0.00  0.00   621     8.90    645     0.0  0.00   0.0   0.072   0.000   74.1    51   54.8   73.9   9.37  .0733    0.000   213    5    100.0   10 
 6/25/19  5:40p   54.1   54.5   54.0    88   50.6   6.0   SSW   1.00  10.0     S   52.5   54.1   52.5   63.9  29.935  0.00  0.00   580     8.31    596     0.0  0.00   0.0   0.076   0.000   74.1    51   54.8   73.9   9.37  .0733    0.000   211    5    100.0   10 
 6/25/19  5:50p   53.9   54.0   53.5    88   50.4   6.0   SSW   1.00   9.0   SSW   52.3   53.9   52.3   62.7  29.934  0.00  0.00   514     7.37    534     0.0  0.00   0.0   0.077   0.000   74.2    51   54.9   74.1   9.37  .0733    0.000   211    5    100.0   10 
 6/25/19  6:00p   54.1   54.2   53.9    88   50.6   6.0   SSW   1.00   9.0   SSW   52.5   54.1   52.5   63.0  29.933  0.00  0.00   491     7.04    506     0.0  0.00   0.0   0.076   0.000   74.2    51   54.9   74.1   9.37  .0733    0.011   213    5    100.0   10 
 6/25/19  6:10p   53.9   54.1   53.8    88   50.4   6.0   SSW   1.00  10.0   SSE   52.3   53.9   52.3   59.6  29.936  0.00  0.00   289     4.14    513     0.0  0.00   0.0   0.077   0.000   74.2    51   54.9   74.1   9.37  .0733    0.000   210    5    100.0   10 
 6/25/19  6:20p   53.7   53.9   53.5    88   50.2   5.0   SSW   0.83   9.0     S   52.5   53.7   52.5   63.3  29.933  0.00  0.00   455     6.52    538     0.0  0.00   0.0   0.078   0.000   74.3    51   55.0   74.2   9.36  .0733    0.000   212    5    100.0   10 
 6/25/19  6:30p   54.2   54.3   53.7    88   50.7   6.0   SSW   1.00  10.0   SSE   52.6   54.2   52.6   59.5  29.935  0.00  0.00   258     3.70    494     0.0  0.00   0.0   0.075   0.000   74.4    51   55.1   74.4   9.36  .0733    0.000   213    5    100.0   10 
 6/25/19  6:40p   54.5   54.6   54.2    88   51.0   5.0   SSW   0.83   7.0   SSW   53.5   54.5   53.5   58.9  29.932  0.00  0.00   197     2.82    216     0.0  0.00   0.0   0.073   0.000   74.4    51   55.1   74.4   9.36  .0733    0.000   211    5    100.0   10 
 6/25/19  6:50p   55.6   55.6   54.5    88   52.1   5.0   SSW   0.83   7.0   SSW   54.8   55.6   54.8   64.9  29.931  0.00  0.00   367     5.26    489     0.0  0.00   0.0   0.065   0.000   74.5    51   55.2   74.5   9.36  .0732    0.000   211    5    100.0   10 
 6/25/19  7:00p   55.5   55.7   55.3    87   51.7   5.0   SSW   0.83   7.0   SSW   54.7   55.5   54.7   65.4  29.930  0.00  0.00   365     5.23    420     0.0  0.00   0.0   0.066   0.000   74.6    51   55.3   74.6   9.36  .0732    0.007   214    5    100.0   10 
 6/25/19  7:10p   55.8   55.9   55.4    88   52.3   5.0   SSW   0.83   6.0   SSW   55.1   55.8   55.1   63.7  29.929  0.00  0.00   294     4.21    318     0.0  0.00   0.0   0.064   0.000   74.6    51   55.3   74.6   9.36  .0732    0.000   212    5    100.0   10 
 6/25/19  7:20p   55.9   56.0   55.7    87   52.1   5.0   SSW   0.83   7.0   SSW   55.2   55.9   55.2   62.7  29.929  0.00  0.00   256     3.67    271     0.0  0.00   0.0   0.063   0.000   74.6    51   55.3   74.6   9.36  .0732    0.000   211    5    100.0   10 
 6/25/19  7:30p   56.8   56.8   55.9    87   53.0   5.0   SSW   0.83   7.0   SSW   56.2   56.8   56.2   62.8  29.929  0.00  0.00   223     3.20    237     0.0  0.00   0.0   0.057   0.000   74.6    51   55.3   74.6   9.36  .0732    0.000   214    5    100.0   10 
 6/25/19  7:40p   57.1   57.1   56.7    85   52.6   5.0   SSW   0.83   8.0   SSW   56.5   57.0   56.4   61.9  29.930  0.00  0.00   190     2.72    204     0.0  0.00   0.0   0.055   0.000   74.7    51   55.4   74.8   9.36  .0732    0.000   211    5    100.0   10 
 6/25/19  7:50p   57.3   57.3   57.1    84   52.5   5.0   SSW   0.83   7.0   SSW   56.8   57.2   56.7   60.8  29.930  0.00  0.00   154     2.21    167     0.0  0.00   0.0   0.053   0.000   74.7    51   55.4   74.8   9.36  .0732    0.000   211    5    100.0   10 
 6/25/19  8:00p   57.5   57.5   57.3    83   52.4   4.0   SSW   0.67   6.0   SSW   57.5   57.3   57.3   57.0  29.931  0.00  0.00   124     1.78    139     0.0  0.00   0.0   0.052   0.000   74.7    51   55.4   74.8   9.36  .0732    0.005   213    5    100.0   10 
 6/25/19  8:10p   57.9   57.9   57.5    82   52.4   4.0   SSW   0.67   7.0   SSW   57.9   57.7   57.7   56.5  29.932  0.00  0.00    84     1.20    107     0.0  0.00   0.0   0.049   0.000   74.8    51   55.5   74.9   9.35  .0732    0.000   212    5    100.0   10 
 6/25/19  8:20p   57.9   58.0   57.8    81   52.1   4.0   SSW   0.67   6.0   SSW   57.9   57.7   57.7   56.0  29.934  0.00  0.00    61     0.87     72     0.0  0.00   0.0   0.049   0.000   74.7    51   55.4   74.8   9.36  .0732    0.000   212    5    100.0   10 
 6/25/19  8:30p   57.4   57.9   57.4    81   51.6   4.0   SSW   0.67   6.0     S   57.4   57.2   57.2   54.9  29.936  0.00  0.00    32     0.46     42     0.0  0.00   0.0   0.053   0.000   74.8    51   55.5   74.9   9.35  .0732    0.000   213    5    100.0   10 
 6/25/19  8:40p   56.7   57.4   56.7    81   50.9   4.0   SSW   0.67   7.0   SSW   56.6   56.4   56.3   53.7  29.938  0.00  0.00    22     0.32     26     0.0  0.00   0.0   0.058   0.000   74.8    51   55.5   74.9   9.35  .0732    0.000   211    5    100.0   10 
 6/25/19  8:50p   56.9   56.9   56.6    82   51.5   4.0   SSW   0.67   6.0   SSW   56.9   56.7   56.7   54.0  29.939  0.00  0.00    14     0.20     18     0.0  0.00   0.0   0.056   0.000   74.7    51   55.4   74.8   9.36  .0732    0.000   212    5    100.0   10 
 6/25/19  9:00p   57.4   57.4   56.9    82   51.9   2.0   SSW   0.33   5.0     S   57.4   57.2   57.2   54.3  29.938  0.00  0.00     7     0.10      9     0.0  0.00   0.0   0.053   0.000   74.6    51   55.3   74.6   9.36  .0732    0.001   211    5    100.0   10 
 6/25/19  9:10p   57.3   57.4   57.3    81   51.5   2.0     S   0.33   5.0   SSW   57.3   57.1   57.1   54.1  29.942  0.00  0.00     1     0.01      5     0.0  0.00   0.0   0.053   0.000   74.6    51   55.3   74.6   9.36  .0732    0.000   213    5    100.0   10 
 6/25/19  9:20p   57.2   57.4   57.2    81   51.4   1.0     S   0.17   4.0   SSW   57.2   57.0   57.0   54.0  29.945  0.00  0.00     0     0.00      0     0.0  0.00   0.0   0.054   0.000   74.5    51   55.2   74.5   9.36  .0733    0.000   213    5    100.0   10 
 6/25/19  9:30p   56.8   57.2   56.8    81   51.0   1.0   SSE   0.17   4.0   SSE   56.8   56.5   56.5   53.5  29.947  0.00  0.00     0     0.00      0     0.0  0.00   0.0   0.057   0.000   74.5    51   55.2   74.5   9.36  .0733    0.000   213    5    100.0   10 
 6/25/19  9:40p   56.6   56.8   56.6    82   51.2   0.0    SE   0.00   2.0    SE   56.6   56.4   56.4   53.4  29.946  0.00  0.00     0     0.00      0     0.0  0.00   0.0   0.058   0.000   74.5    51   55.2   74.5   9.36  .0733    0.000   213    5    100.0   10 
 6/25/19  9:50p   56.5   56.6   56.5    82   51.1   1.0    SE   0.17   4.0   ESE   56.5   56.3   56.3   53.3  29.948  0.00  0.00     0     0.00      0     0.0  0.00   0.0   0.059   0.000   74.5    51   55.2   74.5   9.36  .0733    0.000   211    5    100.0   10 
 6/25/19 10:00p   56.2   56.5   56.2    82   50.8   1.0   ESE   0.17   3.0    SE   56.2   56.0   56.0   52.9  29.949  0.00  0.00     0     0.00      0     0.0  0.00   0.0   0.061   0.000   74.4    51   55.1   74.4   9.36  .0733    0.000   212    5    100.0   10 
 6/25/19 10:10p   56.1   56.3   56.1    82   50.7   1.0    SE   0.17   2.0    SE   56.1   55.9   55.9   52.8  29.951  0.00  0.00     0     0.00      0     0.0  0.00   0.0   0.062   0.000   74.4    51   55.1   74.4   9.36  .0733    0.000   211    5    100.0   10 
 6/25/19 10:20p   56.1   56.2   56.1    83   51.0   1.0    SE   0.17   2.0    SE   56.1   55.9   55.9   52.9  29.951  0.00  0.00     0     0.00      0     0.0  0.00   0.0   0.062   0.000   74.4    51   55.1   74.4   9.36  .0733    0.000   212    5    100.0   10 
 6/25/19 10:30p   55.7   56.1   55.7    83   50.6   1.0    SE   0.17   3.0    SE   55.7   55.5   55.5   52.4  29.951  0.00  0.00     0     0.00      0     0.0  0.00   0.0   0.065   0.000   74.3    51   55.0   74.2   9.36  .0733    0.000   213    5    100.0   10 
 6/25/19 10:40p   55.5   55.7   55.5    83   50.4   1.0    SE   0.17   2.0    SE   55.5   55.3   55.3   52.2  29.952  0.00  0.00     0     0.00      0     0.0  0.00   0.0   0.066   0.000   74.3    51   55.0   74.2   9.36  .0733    0.000   211    5    100.0   10 
 6/25/19 10:50p   55.4   55.5   55.4    83   50.3   1.0   SSE   0.17   2.0   SSE   55.4   55.2   55.2   52.1  29.951  0.00  0.00     0     0.00      0     0.0  0.00   0.0   0.067   0.000   74.3    51   55.0   74.2   9.36  .0733    0.000   211    5    100.0   10 
 6/25/19 11:00p   55.1   55.3   55.1    83   50.0   1.0    SE   0.17   4.0   SSE   55.1   54.9   54.9   51.8  29.950  0.00  0.00     0     0.00      0     0.0  0.00   0.0   0.069   0.000   74.3    51   55.0   74.2   9.36  .0733    0.001   211    5    100.0   10 
 6/25/19 11:10p   55.0   55.1   55.0    84   50.3   1.0   SSE   0.17   3.0   SSE   55.0   54.9   54.9   51.8  29.947  0.00  0.00     0     0.00      0     0.0  0.00   0.0   0.069   0.000   74.2    51   54.9   74.1   9.37  .0733    0.000   213    5    100.0   10 
Email: AdamSPAM@StormwatchersRetreat.com (To send me email remove the word 'SPAM' from my email address.)